Time;durP1;ratioP1;P1;durP2;ratioP2;P2;SDS_P1;SDS_P2;PMS_P1;PMS_P2;Temp;Humidity;BMP_temperature;BMP_pressure;BME280_temperature;BME280_humidity;BME280_pressure;Samples;Min_cycle;Max_cycle;Signal;HPM_P1;HPM_P2
2023/01/18 00:01:20;;;;;;;8.95;3.35;;;1.60;99.90;;;;;;6217131;23;20008;-90
2023/01/18 00:03:46;;;;;;;10.95;4.95;;;1.40;99.90;;;;;;6216966;23;20011;-88
2023/01/18 00:06:12;;;;;;;6.80;4.07;;;1.60;99.90;;;;;;6216833;23;20352;-89
2023/01/18 00:08:44;;;;;;;7.90;4.05;;;1.30;99.90;;;;;;6217031;23;20463;-90
2023/01/18 00:11:12;;;;;;;7.93;2.92;;;1.30;99.90;;;;;;6216472;23;20019;-89
2023/01/18 00:13:38;;;;;;;5.32;2.90;;;1.30;99.90;;;;;;6216522;23;20001;-89
2023/01/18 00:16:10;;;;;;;4.03;3.00;;;0.80;99.90;;;;;;6216801;23;20095;-88
2023/01/18 00:18:37;;;;;;;3.75;2.47;;;0.80;99.90;;;;;;6216625;23;20090;-89
2023/01/18 00:21:08;;;;;;;7.90;3.10;;;0.90;99.90;;;;;;6217850;23;20091;-90
2023/01/18 00:23:35;;;;;;;7.10;2.55;;;0.90;99.90;;;;;;6217146;23;20243;-89
2023/01/18 00:26:02;;;;;;;7.25;2.78;;;1.60;99.90;;;;;;6217205;23;20000;-89
2023/01/18 00:28:28;;;;;;;5.07;3.00;;;2.00;99.90;;;;;;6217032;23;20007;-88
2023/01/18 00:30:54;;;;;;;6.60;3.20;;;1.70;99.90;;;;;;6216177;23;20150;-90
2023/01/18 00:33:22;;;;;;;7.03;3.33;;;1.40;99.90;;;;;;6216663;23;20039;-90
2023/01/18 00:35:59;;;;;;;6.43;3.33;;;1.30;99.90;;;;;;6216426;23;20008;-90
2023/01/18 00:38:29;;;;;;;7.22;3.67;;;1.40;99.90;;;;;;6216576;23;20329;-89
2023/01/18 00:40:55;;;;;;;5.05;3.22;;;1.60;99.90;;;;;;6216581;23;20008;-88
2023/01/18 00:43:39;;;;;;;7.90;3.33;;;2.00;99.90;;;;;;6216464;23;20079;-88
2023/01/18 00:46:17;;;;;;;7.05;3.72;;;1.30;99.90;;;;;;6216642;23;20011;-91
2023/01/18 00:48:48;;;;;;;6.40;3.57;;;1.10;99.90;;;;;;6216224;23;20004;-91
2023/01/18 00:51:20;;;;;;;19.30;8.27;;;1.50;99.90;;;;;;6216337;23;20016;-89
2023/01/18 00:53:54;;;;;;;15.52;6.55;;;0.70;99.90;;;;;;6216181;23;20011;-89
2023/01/18 00:56:30;;;;;;;6.55;3.38;;;0.60;99.90;;;;;;6215796;23;20468;-90
2023/01/18 00:58:56;;;;;;;5.68;3.08;;;0.90;99.90;;;;;;6216376;23;20012;-90
2023/01/18 01:01:23;;;;;;;8.38;3.60;;;1.50;99.90;;;;;;6216069;23;20012;-91
2023/01/18 01:06:44;;;;;;;8.50;3.85;;;1.10;99.90;;;;;;6243956;23;20018;-90
2023/01/18 01:09:27;;;;;;;9.88;4.22;;;0.40;99.90;;;;;;6216457;23;20000;-89
2023/01/18 01:26:13;;;;;;;5.22;3.00;;;0.30;99.90;;;;;;6243179;23;20011;-88
2023/01/18 01:28:56;;;;;;;8.15;3.30;;;0.50;99.90;;;;;;6216458;23;20008;-89
2023/01/18 01:31:22;;;;;;;9.93;5.43;;;1.10;99.90;;;;;;6216165;23;20019;-89
2023/01/18 01:33:48;;;;;;;10.50;6.30;;;0.60;99.90;;;;;;6216653;23;20009;-89
2023/01/18 01:36:19;;;;;;;22.00;11.90;;;0.30;99.90;;;;;;6216023;23;20005;-89
2023/01/18 01:38:45;;;;;;;17.75;9.55;;;0.40;99.90;;;;;;6216075;23;20010;-90
2023/01/18 01:41:30;;;;;;;;;;;;;;;;;;;;;
2023/01/18 01:44:16;;;;;;;26.77;12.95;;;0.40;99.90;;;;;;6244255;23;20396;-90
2023/01/18 01:47:10;;;;;;;5.95;3.65;;;0.80;99.90;;;;;;6215961;23;20004;-91
2023/01/18 01:49:47;;;;;;;5.30;3.25;;;0.20;99.90;;;;;;6218986;23;20051;-89
2023/01/18 01:52:21;;;;;;;4.22;2.72;;;0.60;99.90;;;;;;6218411;23;20015;-89
2023/01/18 01:55:03;;;;;;;7.90;3.38;;;0.70;99.90;;;;;;6218016;23;20020;-90
2023/01/18 01:57:37;;;;;;;7.78;4.20;;;1.00;99.90;;;;;;6217967;23;20427;-89
2023/01/18 02:00:24;;;;;;;9.13;5.57;;;0.70;99.90;;;;;;6218316;23;20000;-89
2023/01/18 02:03:01;;;;;;;7.38;4.53;;;0.40;99.90;;;;;;6218294;23;20011;-90
2023/01/18 02:05:29;;;;;;;8.50;4.20;;;0.50;99.90;;;;;;6217952;23;20004;-88
2023/01/18 02:08:01;;;;;;;5.68;3.10;;;0.50;99.90;;;;;;6217702;23;20062;-89
2023/01/18 02:10:38;;;;;;;3.85;3.15;;;0.50;99.90;;;;;;6218205;23;20024;-90
2023/01/18 02:13:17;;;;;;;4.35;2.70;;;0.60;99.90;;;;;;6217678;23;20032;-89
2023/01/18 02:16:03;;;;;;;3.70;2.60;;;1.00;99.90;;;;;;6218007;23;20016;-89
2023/01/18 02:18:50;;;;;;;;;;;;;;;;;;;;;
2023/01/18 02:21:28;;;;;;;3.67;2.70;;;1.20;99.90;;;;;;6244756;23;20088;-90
2023/01/18 02:24:09;;;;;;;4.45;2.85;;;0.70;99.90;;;;;;6217670;23;20004;-90
2023/01/18 02:27:04;;;;;;;4.90;2.80;;;0.60;99.90;;;;;;6217726;23;20004;-90
2023/01/18 02:29:35;;;;;;;6.82;2.97;;;0.60;99.90;;;;;;6218011;23;20007;-89
2023/01/18 02:32:27;;;;;;;6.40;3.17;;;0.70;99.90;;;;;;6217889;23;20225;-88
2023/01/18 02:35:13;;;;;;;3.97;2.65;;;0.50;99.90;;;;;;6217492;23;20501;-89
2023/01/18 02:37:59;;;;;;;6.22;3.28;;;1.50;99.90;;;;;;6218372;23;20008;-89
2023/01/18 02:40:54;;;;;;;7.40;4.20;;;1.00;99.90;;;;;;6217695;23;20004;-88
2023/01/18 02:46:37;;;;;;;;;;;0.80;99.90;;;;;;6184513;23;20001;-92
2023/01/18 02:49:22;;;;;;;2.97;2.55;;;0.50;99.90;;;;;;6213323;23;19899;-89
2023/01/18 02:51:48;;;;;;;5.35;2.30;;;0.80;99.90;;;;;;6217382;23;20012;-88
2023/01/18 02:54:23;;;;;;;5.13;2.50;;;0.70;99.90;;;;;;6217492;23;20000;-89
2023/01/18 02:56:55;;;;;;;6.70;2.53;;;1.70;99.90;;;;;;6217717;23;20012;-89
2023/01/18 02:59:34;;;;;;;7.07;2.78;;;1.00;99.90;;;;;;6217605;23;20000;-90
2023/01/18 03:02:10;;;;;;;5.78;2.67;;;0.70;99.90;;;;;;6217792;23;20008;-89
2023/01/18 03:04:44;;;;;;;4.65;2.50;;;0.70;99.90;;;;;;6217524;23;20004;-90
2023/01/18 03:07:27;;;;;;;5.22;2.70;;;1.10;99.90;;;;;;6217808;23;20008;-89
2023/01/18 03:10:01;;;;;;;6.90;2.65;;;0.80;99.90;;;;;;6217330;23;20012;-89
2023/01/18 03:13:31;;;;;;;;;;;;;;;;;;;;;
2023/01/18 03:16:10;;;;;;;5.00;2.67;;;1.00;99.90;;;;;;6148281;23;20365;-90
2023/01/18 03:19:02;;;;;;;4.63;3.00;;;1.00;99.90;;;;;;6217086;23;20096;-90
2023/01/18 03:21:44;;;;;;;6.30;2.90;;;1.00;99.90;;;;;;6217447;23;20087;-90
2023/01/18 03:24:12;;;;;;;6.38;3.25;;;1.10;99.90;;;;;;6217955;23;20510;-89
2023/01/18 03:26:45;;;;;;;5.05;3.00;;;1.40;99.90;;;;;;6217105;23;20004;-90
2023/01/18 03:35:02;;;;;;;6.00;2.63;;;2.00;99.90;;;;;;6243689;23;20046;-89
2023/01/18 03:37:42;;;;;;;3.83;2.65;;;1.00;99.90;;;;;;6217379;23;20011;-89
2023/01/18 03:40:19;;;;;;;2.88;2.40;;;1.20;99.90;;;;;;6217113;23;20000;-88
2023/01/18 03:43:14;;;;;;;3.35;2.45;;;1.00;99.90;;;;;;6217068;23;20011;-88
2023/01/18 03:45:48;;;;;;;2.65;2.35;;;1.40;99.90;;;;;;6217593;23;20004;-88
2023/01/18 03:48:15;;;;;;;5.85;2.60;;;2.00;99.90;;;;;;6217516;23;20440;-89
2023/01/18 03:51:05;;;;;;;8.27;2.85;;;1.60;99.90;;;;;;6217896;23;20095;-89
2023/01/18 03:53:41;;;;;;;4.47;2.70;;;0.90;99.90;;;;;;6216687;23;20011;-90
2023/01/18 03:56:25;;;;;;;7.60;3.75;;;1.80;99.90;;;;;;6216532;23;20004;-89
2023/01/18 03:59:00;;;;;;;4.15;3.50;;;1.70;99.90;;;;;;6217185;23;20391;-89
2023/01/18 04:01:33;;;;;;;7.90;3.70;;;1.80;99.90;;;;;;6216833;23;20429;-88
2023/01/18 04:04:01;;;;;;;3.75;3.10;;;2.00;99.90;;;;;;6217065;23;20027;-88
2023/01/18 04:09:14;;;;;;;5.28;3.22;;;2.10;99.90;;;;;;6223014;23;20000;-90
2023/01/18 04:11:43;;;;;;;4.05;3.50;;;1.20;99.90;;;;;;6216664;23;20012;-90
2023/01/18 04:14:13;;;;;;;7.20;3.88;;;2.10;99.90;;;;;;6216709;23;20000;-88
2023/01/18 04:16:42;;;;;;;4.70;3.30;;;1.90;99.90;;;;;;6216499;23;20008;-89
2023/01/18 04:19:07;;;;;;;4.80;3.30;;;2.30;99.90;;;;;;6216755;23;20008;-90
2023/01/18 04:21:37;;;;;;;8.95;3.40;;;1.40;99.90;;;;;;6216599;23;20099;-89
2023/01/18 04:24:04;;;;;;;5.32;3.35;;;1.60;99.90;;;;;;6216886;23;20011;-88
2023/01/18 04:26:45;;;;;;;;;;;;;;;;;;;;;
2023/01/18 04:29:11;;;;;;;7.38;3.45;;;1.20;99.90;;;;;;6243182;23;20075;-89
2023/01/18 04:31:36;;;;;;;4.60;3.33;;;1.70;99.90;;;;;;6216615;23;20050;-89
2023/01/18 04:34:02;;;;;;;6.15;3.47;;;1.10;99.90;;;;;;6216562;23;20392;-89
2023/01/18 04:36:28;;;;;;;5.43;3.35;;;1.10;99.90;;;;;;6216553;23;20011;-90
2023/01/18 04:38:54;;;;;;;5.25;3.17;;;1.50;99.90;;;;;;6216863;23;20139;-89
2023/01/18 04:41:23;;;;;;;4.88;3.05;;;1.80;99.90;;;;;;6216712;23;20000;-90
2023/01/18 04:43:49;;;;;;;6.65;3.08;;;1.10;99.90;;;;;;6216040;23;20131;-90
2023/01/18 04:46:14;;;;;;;3.20;2.90;;;1.80;99.90;;;;;;6217001;23;20024;-88
2023/01/18 04:48:46;;;;;;;5.65;2.65;;;2.00;99.90;;;;;;6216739;23;20062;-89
2023/01/18 04:51:13;;;;;;;3.92;3.15;;;1.60;99.90;;;;;;6216470;23;20012;-89
2023/01/18 04:53:40;;;;;;;4.32;2.95;;;2.10;99.90;;;;;;6216594;23;20264;-90
2023/01/18 04:56:06;;;;;;;4.45;2.97;;;2.00;99.90;;;;;;6216337;23;20008;-89
2023/01/18 04:58:32;;;;;;;3.58;2.60;;;1.20;99.90;;;;;;6216036;23;20518;-90
2023/01/18 05:01:02;;;;;;;5.32;2.88;;;1.50;99.90;;;;;;6216624;23;20004;-89
2023/01/18 05:03:36;;;;;;;5.95;3.17;;;1.90;99.90;;;;;;6216888;23;20326;-91
2023/01/18 05:06:06;;;;;;;5.32;2.80;;;1.70;99.90;;;;;;6216324;23;20036;-91
2023/01/18 05:08:38;;;;;;;7.15;3.15;;;1.10;99.90;;;;;;6217103;23;20000;-91
2023/01/18 05:11:07;;;;;;;4.93;2.90;;;1.10;99.90;;;;;;6216941;23;20392;-87
2023/01/18 05:13:38;;;;;;;8.02;3.05;;;1.10;99.90;;;;;;6216116;23;20011;-90
2023/01/18 05:16:04;;;;;;;4.78;3.80;;;2.20;99.90;;;;;;6216685;23;20008;-90
2023/01/18 05:18:30;;;;;;;4.78;3.45;;;1.00;99.90;;;;;;6215915;23;20004;-87
2023/01/18 06:42:58;;;;;;;;;;;;;;;;;;;;;
2023/01/18 06:48:37;;;;;;;;;;;1.40;99.90;;;;;;6200825;23;19919;-90
2023/01/18 06:51:03;;;;;;;;;;;0.90;99.90;;;;;;6194017;23;19911;-90
2023/01/18 06:53:29;;;;;;;;;;;1.10;99.90;;;;;;6193333;23;19951;-89
2023/01/18 06:55:55;;;;;;;;;;;1.40;99.90;;;;;;6194612;23;19904;-91
2023/01/18 06:58:21;;;;;;;;;;;1.40;99.90;;;;;;6194708;23;20317;-91
2023/01/18 07:00:47;;;;;;;;;;;2.00;99.90;;;;;;6193580;23;19910;-89
2023/01/18 07:03:12;;;;;;;;;;;2.20;99.90;;;;;;6193728;23;19910;-90
2023/01/18 07:05:38;;;;;;;;;;;1.80;99.90;;;;;;6191043;23;19904;-89
2023/01/18 07:08:03;;;;;;;;;;;1.90;99.90;;;;;;6213372;23;19962;-89
2023/01/18 07:10:29;;;;;;;;;;;2.20;99.90;;;;;;6213436;23;19904;-90
2023/01/18 07:12:54;;;;;;;;;;;1.60;99.90;;;;;;6187787;23;19935;-90
2023/01/18 07:15:20;;;;;;;;;;;2.30;99.90;;;;;;6186814;23;20340;-89
2023/01/18 07:17:46;;;;;;;;;;;1.30;99.90;;;;;;6186829;23;20179;-90
2023/01/18 07:20:14;;;;;;;;;;;1.50;99.90;;;;;;6186840;23;19904;-90
2023/01/18 07:22:40;;;;;;;;;;;1.30;99.90;;;;;;6186595;23;19904;-90
2023/01/18 07:25:06;;;;;;;;;;;1.60;99.90;;;;;;6186945;23;19911;-89
2023/01/18 07:27:31;;;;;;;;;;;1.20;99.90;;;;;;6186978;23;20254;-89
2023/01/18 07:29:57;;;;;;;;;;;2.20;99.90;;;;;;6187627;23;19904;-90
2023/01/18 07:32:22;;;;;;;;;;;1.30;99.90;;;;;;6187441;23;19927;-90
2023/01/18 07:34:48;;;;;;;;;;;2.80;99.90;;;;;;6186503;23;19974;-90
2023/01/18 07:37:13;;;;;;;;;;;2.20;99.90;;;;;;6195314;23;19904;-89
2023/01/18 07:39:39;;;;;;;;;;;1.90;99.90;;;;;;6198582;23;20295;-91
2023/01/18 07:42:05;;;;;;;;;;;1.70;99.90;;;;;;6181400;23;20046;-90
2023/01/18 07:44:30;;;;;;;;;;;1.80;99.90;;;;;;6181818;23;19946;-90
2023/01/18 07:46:56;;;;;;;;;;;2.10;99.90;;;;;;6182229;23;19904;-90
2023/01/18 07:49:22;;;;;;;;;;;1.90;99.90;;;;;;6181386;23;19904;-91
2023/01/18 07:51:47;;;;;;;;;;;2.10;99.90;;;;;;6181117;23;19908;-89
2023/01/18 07:54:14;;;;;;;;;;;2.60;99.90;;;;;;6181696;23;20297;-90
2023/01/18 07:56:40;;;;;;;;;;;1.40;99.90;;;;;;6181589;23;19911;-89
2023/01/18 07:59:06;;;;;;;;;;;1.50;99.90;;;;;;6181440;23;19905;-89
2023/01/18 08:01:31;;;;;;;;;;;1.30;99.90;;;;;;6181278;23;20004;-90
2023/01/18 08:03:57;;;;;;;;;;;1.50;99.90;;;;;;6182138;23;19987;-90
2023/01/18 08:06:26;;;;;;;;;;;1.30;99.90;;;;;;6181129;23;19904;-90
2023/01/18 08:08:53;;;;;;;;;;;1.70;99.90;;;;;;6181457;23;19904;-90
2023/01/18 08:11:19;;;;;;;;;;;1.30;99.90;;;;;;6181391;23;19911;-89
2023/01/18 08:13:44;;;;;;;;;;;1.50;99.90;;;;;;6181061;23;19908;-90
2023/01/18 08:16:11;;;;;;;;;;;1.50;99.90;;;;;;6181272;23;19916;-90
2023/01/18 08:18:36;;;;;;;;;;;2.00;99.90;;;;;;6180789;23;19911;-90
2023/01/18 08:21:02;;;;;;;;;;;2.60;99.90;;;;;;6182982;23;19910;-89
2023/01/18 08:23:28;;;;;;;;;;;1.40;99.90;;;;;;6181936;23;19939;-89
2023/01/18 08:25:54;;;;;;;;;;;2.40;99.90;;;;;;6182733;23;19931;-90
2023/01/18 08:28:20;;;;;;;;;;;2.40;99.90;;;;;;6182817;23;19904;-90
2023/01/18 08:30:46;;;;;;;;;;;2.60;99.90;;;;;;6181177;23;19912;-91
2023/01/18 08:33:12;;;;;;;;;;;2.20;99.90;;;;;;6180832;23;19904;-90
2023/01/18 08:35:42;;;;;;;;;;;2.10;99.90;;;;;;6180676;23;20293;-89
2023/01/18 08:38:08;;;;;;;;;;;2.50;99.90;;;;;;6181206;23;19904;-90
2023/01/18 08:40:34;;;;;;;;;;;1.50;99.90;;;;;;6181021;23;19948;-89
2023/01/18 08:43:01;;;;;;;;;;;2.10;99.90;;;;;;6181774;23;19935;-90
2023/01/18 08:45:27;;;;;;;;;;;2.00;99.90;;;;;;6181857;23;19904;-89
2023/01/18 08:47:56;;;;;;;;;;;1.60;99.90;;;;;;6180765;23;19909;-90
2023/01/18 08:50:22;;;;;;;;;;;1.40;99.90;;;;;;6181966;23;20173;-89
2023/01/18 08:52:47;;;;;;;;;;;2.20;99.90;;;;;;6180827;23;19904;-89
2023/01/18 08:55:13;;;;;;;;;;;2.60;99.90;;;;;;6180666;23;19912;-90
2023/01/18 08:57:38;;;;;;;;;;;2.60;99.90;;;;;;6180522;23;19983;-89
2023/01/18 09:00:04;;;;;;;;;;;2.10;99.90;;;;;;6180550;23;19908;-90
2023/01/18 09:02:29;;;;;;;;;;;1.40;99.90;;;;;;6181119;23;19926;-90
2023/01/18 09:04:55;;;;;;;;;;;2.10;99.90;;;;;;6180156;23;19905;-89
2023/01/18 09:07:21;;;;;;;;;;;2.70;99.90;;;;;;6181797;23;19939;-88
2023/01/18 09:09:46;;;;;;;;;;;1.40;99.90;;;;;;6180323;23;19904;-89
2023/01/18 09:12:12;;;;;;;;;;;2.10;99.90;;;;;;6180346;23;19904;-88
2023/01/18 09:14:38;;;;;;;;;;;2.00;99.90;;;;;;6181683;23;19953;-89
2023/01/18 09:17:04;;;;;;;;;;;2.40;99.90;;;;;;6181597;23;19908;-89
2023/01/18 09:19:29;;;;;;;;;;;2.90;99.90;;;;;;6180797;23;20337;-89
2023/01/18 09:21:55;;;;;;;;;;;2.00;99.90;;;;;;6180369;23;19911;-89
2023/01/18 09:24:21;;;;;;;;;;;2.20;99.90;;;;;;6180246;23;19911;-89
2023/01/18 09:26:49;;;;;;;;;;;2.00;99.90;;;;;;6180310;23;19904;-89
2023/01/18 09:29:15;;;;;;;;;;;1.70;99.90;;;;;;6179945;23;19904;-89
2023/01/18 09:31:40;;;;;;;;;;;2.30;99.90;;;;;;6180155;23;20244;-89
2023/01/18 09:34:06;;;;;;;;;;;2.00;99.90;;;;;;6179765;23;19913;-89
2023/01/18 09:36:32;;;;;;;;;;;2.30;99.90;;;;;;6181199;23;20241;-89
2023/01/18 09:38:57;;;;;;;;;;;2.10;99.90;;;;;;6181612;23;19905;-88
2023/01/18 09:41:32;;;;;;;;;;;1.80;99.90;;;;;;6180105;23;19919;-90
2023/01/18 09:44:12;;;;;;;;;;;1.60;99.90;;;;;;6180352;23;19904;-90
2023/01/18 09:46:39;;;;;;;;;;;1.70;99.90;;;;;;6179941;23;19983;-89
2023/01/18 09:49:06;;;;;;;;;;;2.40;99.90;;;;;;6182088;23;19908;-88
2023/01/18 09:51:45;;;;;;;;;;;2.50;99.90;;;;;;6181064;23;19904;-89
2023/01/18 09:54:17;;;;;;;;;;;1.80;99.90;;;;;;6180015;23;19909;-89
2023/01/18 09:56:47;;;;;;;;;;;1.80;99.90;;;;;;6179979;23;19911;-90
2023/01/18 09:59:13;;;;;;;;;;;2.30;99.90;;;;;;6180029;23;19904;-89
2023/01/18 10:01:39;;;;;;;;;;;1.90;99.90;;;;;;6180584;23;20332;-89
2023/01/18 10:04:11;;;;;;;;;;;2.30;99.90;;;;;;6181050;23;19909;-90
2023/01/18 10:06:57;;;;;;;;;;;2.00;99.90;;;;;;6180103;23;19904;-89
2023/01/18 10:09:27;;;;;;;;;;;2.10;99.90;;;;;;6184752;23;19904;-89
2023/01/18 10:11:55;;;;;;;;;;;2.20;99.90;;;;;;6187844;23;20340;-89
2023/01/18 10:14:23;;;;;;;;;;;3.20;99.90;;;;;;6188686;23;19952;-90
2023/01/18 10:16:56;;;;;;;;;;;3.20;99.90;;;;;;6183288;23;19916;-90
2023/01/18 10:19:29;;;;;;;;;;;2.40;99.90;;;;;;6181831;23;19932;-89
2023/01/18 10:22:03;;;;;;;;;;;2.50;99.90;;;;;;6180030;23;19912;-88
2023/01/18 10:24:40;;;;;;;;;;;2.60;99.90;;;;;;6181722;23;19905;-89
2023/01/18 10:27:12;;;;;;;;;;;2.70;99.90;;;;;;6181136;23;20236;-90
2023/01/18 10:30:02;;;;;;;;;;;2.80;99.90;;;;;;6179967;23;19979;-89
2023/01/18 10:32:29;;;;;;;;;;;2.90;99.90;;;;;;6179963;23;19955;-89
2023/01/18 10:34:56;;;;;;;;;;;3.40;99.90;;;;;;6181430;23;19916;-88
2023/01/18 10:37:37;;;;;;;;;;;3.10;99.90;;;;;;6181452;23;20397;-89
2023/01/18 10:40:04;;;;;;;;;;;3.00;99.90;;;;;;6180682;23;19904;-90
2023/01/18 10:42:38;;;;;;;;;;;3.20;99.90;;;;;;6206643;23;20257;-90
2023/01/18 10:45:10;;;;;;;;;;;3.40;99.90;;;;;;6187537;23;20379;-89
2023/01/18 10:47:35;;;;;;;;;;;3.60;99.90;;;;;;6214372;23;19904;-90
2023/01/18 10:50:10;;;;;;;;;;;4.20;99.90;;;;;;6186736;23;19904;-90
2023/01/18 10:52:36;;;;;;;;;;;4.70;99.90;;;;;;6187366;23;19904;-89
2023/01/18 10:55:06;;;;;;;;;;;4.90;99.90;;;;;;6186094;23;19916;-89
2023/01/18 10:57:35;;;;;;;;;;;4.10;99.90;;;;;;6186734;23;19904;-89
2023/01/18 11:00:01;;;;;;;;;;;3.90;99.90;;;;;;6186353;23;20352;-89
2023/01/18 11:02:33;;;;;;;;;;;3.80;99.90;;;;;;6186379;23;20359;-89
2023/01/18 11:05:01;;;;;;;;;;;3.70;99.90;;;;;;6186384;23;19939;-88
2023/01/18 11:07:27;;;;;;;;;;;4.20;99.90;;;;;;6213036;23;19904;-88
2023/01/18 11:09:54;;;;;;;;;;;4.50;99.90;;;;;;6186072;23;19904;-89
2023/01/18 11:12:40;;;;;;;;;;;4.80;99.90;;;;;;6186460;23;20248;-90
2023/01/18 11:15:12;;;;;;;;;;;3.80;99.90;;;;;;6187008;23;19991;-89
2023/01/18 11:17:54;;;;;;;;;;;3.70;99.90;;;;;;6187132;23;19936;-89
2023/01/18 11:20:22;;;;;;;;;;;3.60;99.90;;;;;;6212737;23;20294;-88
2023/01/18 11:22:59;;;;;;;;;;;4.10;99.90;;;;;;6186539;23;19904;-88
2023/01/18 11:25:25;;;;;;;;;;;3.60;99.90;;;;;;6186003;23;19908;-89
2023/01/18 11:27:50;;;;;;;;;;;4.20;99.90;;;;;;6212650;23;19911;-89
2023/01/18 11:30:23;;;;;;;;;;;4.50;99.90;;;;;;6185820;23;19904;-88
2023/01/18 11:32:53;;;;;;;;;;;3.50;99.90;;;;;;6186010;23;19910;-90
2023/01/18 11:35:29;;;;;;;;;;;4.20;99.90;;;;;;6212958;23;19912;-88
2023/01/18 11:37:58;;;;;;;;;;;3.40;99.90;;;;;;6212585;23;19914;-89
2023/01/18 11:40:27;;;;;;;;;;;3.40;99.90;;;;;;6185817;23;19912;-89
2023/01/18 11:42:57;;;;;;;;;;;3.30;99.90;;;;;;6180624;23;19987;-88
2023/01/18 11:45:23;;;;;;;;;;;3.70;99.90;;;;;;6180773;23;20241;-89
2023/01/18 11:47:55;;;;;;;;;;;3.90;99.90;;;;;;6181174;23;19904;-89
2023/01/18 11:50:34;;;;;;;;;;;3.30;99.90;;;;;;6180990;23;19904;-88
2023/01/18 11:53:10;;;;;;;;;;;3.30;99.90;;;;;;6182292;23;19932;-89
2023/01/18 11:56:05;;;;;;;;;;;3.30;99.90;;;;;;6181962;23;20341;-88
2023/01/18 11:58:31;;;;;;;;;;;3.30;99.90;;;;;;6168653;23;19904;-89
2023/01/18 12:01:07;;;;;;;;;;;4.10;99.90;;;;;;6180838;23;19904;-89
2023/01/18 12:03:36;;;;;;;;;;;3.10;99.90;;;;;;6182699;23;20325;-89
2023/01/18 12:06:05;;;;;;;;;;;3.10;99.90;;;;;;6181082;23;20169;-90
2023/01/18 12:08:46;;;;;;;;;;;4.20;99.90;;;;;;6181403;23;19939;-91
2023/01/18 12:11:20;;;;;;;;;;;2.90;99.90;;;;;;6182327;23;19912;-91
2023/01/18 12:13:53;;;;;;;;;;;2.80;99.90;;;;;;6182750;23;20249;-90
2023/01/18 12:16:28;;;;;;;;;;;3.80;99.90;;;;;;6183094;23;19908;-89
2023/01/18 12:19:19;;;;;;;;;;;2.70;99.90;;;;;;6181290;23;20333;-91
2023/01/18 12:22:00;;;;;;;;;;;2.60;99.90;;;;;;6164304;23;19912;-89
2023/01/18 12:24:34;;;;;;;;;;;2.60;99.90;;;;;;6181481;23;19905;-90
2023/01/18 12:27:05;;;;;;;;;;;2.50;99.90;;;;;;6181325;23;19905;-89
2023/01/18 12:29:43;;;;;;;;;;;3.50;99.90;;;;;;6181529;23;20273;-91
2023/01/18 12:32:27;;;;;;;;;;;2.50;99.90;;;;;;6182409;23;20230;-91
2023/01/18 12:35:08;;;;;;;;;;;2.50;99.90;;;;;;6181506;23;19912;-90
2023/01/18 12:37:42;;;;;;;;;;;2.60;99.90;;;;;;6181457;23;20125;-90
2023/01/18 12:40:13;;;;;;;;;;;2.70;99.90;;;;;;6181339;23;19983;-91
2023/01/18 12:42:45;;;;;;;;;;;2.70;99.90;;;;;;6181776;23;19983;-91
2023/01/18 12:45:11;;;;;;;;;;;2.80;99.90;;;;;;6181716;23;19990;-91
2023/01/18 12:47:38;;;;;;;;;;;3.80;99.90;;;;;;6181014;23;19944;-90
2023/01/18 12:50:11;;;;;;;;;;;3.00;99.90;;;;;;6181476;23;20288;-89
2023/01/18 12:52:40;;;;;;;;;;;3.60;99.90;;;;;;6180964;23;19908;-90
2023/01/18 12:55:06;;;;;;;;;;;4.20;99.90;;;;;;6180909;23;19927;-90
2023/01/18 12:57:32;;;;;;;;;;;3.60;99.90;;;;;;6180911;23;19905;-90
2023/01/18 13:00:14;;;;;;;;;;;4.60;99.90;;;;;;6181245;23;20311;-91
2023/01/18 13:02:43;;;;;;;;;;;3.80;99.90;;;;;;6180815;23;19987;-90
2023/01/18 13:05:27;;;;;;;;;;;;;;;;;;;;;
2023/01/18 13:07:57;;;;;;;;;;;3.90;99.90;;;;;;6182501;23;19983;-90
2023/01/18 13:10:27;;;;;;;;;;;5.40;99.90;;;;;;6180709;23;19904;-91
2023/01/18 13:12:54;;;;;;;;;;;4.00;99.90;;;;;;6181108;23;19940;-91
2023/01/18 13:15:24;;;;;;;;;;;3.90;99.90;;;;;;6182416;23;19935;-91
2023/01/18 13:17:56;;;;;;;;;;;3.90;99.90;;;;;;6180553;23;20329;-88
2023/01/18 13:20:28;;;;;;;;;;;3.80;99.90;;;;;;6180321;23;20369;-92
2023/01/18 13:23:13;;;;;;;;;;;4.10;99.90;;;;;;6180168;23;19967;-89
2023/01/18 13:25:49;;;;;;;;;;;3.70;99.90;;;;;;6182168;23;19936;-89
2023/01/18 13:28:16;;;;;;;;;;;3.60;99.90;;;;;;6183136;23;20244;-89
2023/01/18 13:30:51;;;;;;;;;;;4.50;99.90;;;;;;6181269;23;19987;-89
2023/01/18 13:33:21;;;;;;;;;;;3.50;99.90;;;;;;6180180;23;20313;-90
2023/01/18 13:35:52;;;;;;;;;;;4.60;99.90;;;;;;6180884;23;19912;-90
2023/01/18 13:38:20;;;;;;;;;;;3.50;99.90;;;;;;6180644;23;19947;-90
2023/01/18 13:41:05;;;;;;;;;;;4.50;99.90;;;;;;6183229;23;20222;-91
2023/01/18 13:43:50;;;;;;;;;;;3.70;99.90;;;;;;6211954;23;19908;-90
2023/01/18 13:46:20;;;;;;;;;;;4.60;99.90;;;;;;6185781;23;20342;-90
2023/01/18 13:48:53;;;;;;;;;;;3.90;99.90;;;;;;6186544;23;19911;-91
2023/01/18 13:51:38;;;;;;;;;;;4.00;99.90;;;;;;6185936;23;20411;-91
2023/01/18 13:54:05;;;;;;;;;;;4.10;99.90;;;;;;6185726;23;20347;-91
2023/01/18 13:56:33;;;;;;;;;;;5.10;99.90;;;;;;6185073;23;19908;-89
2023/01/18 13:59:01;;;;;;;;;;;4.40;99.90;;;;;;6211692;23;19911;-89
2023/01/18 14:01:31;;;;;;;;;;;5.00;99.90;;;;;;6185280;23;19904;-89
2023/01/18 14:04:03;;;;;;;;;;;4.20;99.90;;;;;;6185032;23;20321;-90
2023/01/18 14:06:34;;;;;;;;;;;5.20;99.90;;;;;;6211717;23;19904;-90
2023/01/18 14:09:03;;;;;;;;;;;4.10;99.90;;;;;;6184762;23;20007;-89
2023/01/18 14:11:30;;;;;;;;;;;5.20;99.90;;;;;;6211661;23;19978;-89
2023/01/18 14:14:00;;;;;;;;;;;4.70;99.90;;;;;;6185154;23;19930;-89
2023/01/18 14:16:28;;;;;;;;;;;3.90;99.90;;;;;;6186147;23;19908;-89
2023/01/18 14:19:12;;;;;;;;;;;5.00;99.90;;;;;;6213479;23;19943;-90
2023/01/18 14:21:56;;;;;;;;;;;3.70;99.90;;;;;;6187318;23;20404;-90
2023/01/18 14:24:33;;;;;;;;;;;3.50;99.90;;;;;;6188264;23;19950;-89
2023/01/18 14:26:59;;;;;;;;;;;3.40;99.90;;;;;;6187036;23;20333;-90
2023/01/18 14:29:32;;;;;;;;;;;3.60;99.90;;;;;;6187199;23;19915;-90
2023/01/18 14:32:04;;;;;;;;;;;3.40;99.90;;;;;;6187063;23;19939;-90
2023/01/18 14:34:29;;;;;;;;;;;4.40;99.90;;;;;;6187708;23;19912;-90
2023/01/18 14:36:55;;;;;;;;;;;4.30;99.90;;;;;;6187884;23;20003;-91
2023/01/18 14:39:21;;;;;;;;;;;4.60;99.90;;;;;;6187504;23;19904;-91
2023/01/18 14:41:50;;;;;;;;;;;3.60;99.90;;;;;;6183264;23;19967;-90
2023/01/18 14:44:18;;;;;;;;;;;4.30;99.90;;;;;;6182937;23;20244;-89
2023/01/18 14:46:54;;;;;;;;;;;4.50;99.90;;;;;;6182164;23;19904;-89
2023/01/18 14:49:25;;;;;;;;;;;3.50;99.90;;;;;;6182433;23;19940;-89
2023/01/18 14:51:51;;;;;;;;;;;4.40;99.90;;;;;;6182539;23;19904;-89
2023/01/18 14:54:17;;;;;;;;;;;3.90;99.90;;;;;;6183007;23;19909;-90
2023/01/18 14:56:43;;;;;;;;;;;4.50;99.90;;;;;;6182121;23;19911;-90
2023/01/18 14:59:19;;;;;;;;;;;4.00;99.90;;;;;;6182767;23;19928;-90
2023/01/18 15:01:55;;;;;;;;;;;3.70;99.90;;;;;;6182585;23;19908;-90
2023/01/18 15:04:25;;;;;;;;;;;3.60;99.90;;;;;;6182789;23;19905;-89
2023/01/18 15:07:02;;;;;;;;;;;3.60;99.90;;;;;;6182800;23;19936;-90
2023/01/18 15:09:32;;;;;;;;;;;3.30;99.90;;;;;;6182023;23;19991;-90
2023/01/18 15:12:00;;;;;;;;;;;3.50;99.90;;;;;;6182118;23;20226;-90
2023/01/18 15:14:28;;;;;;;;;;;3.50;99.90;;;;;;6182324;23;19916;-90
2023/01/18 15:16:54;;;;;;;;;;;3.90;99.90;;;;;;6182639;23;19909;-90
2023/01/18 15:19:29;;;;;;;;;;;3.60;99.90;;;;;;6182841;23;20356;-90
2023/01/18 15:21:59;;;;;;;;;;;3.30;99.90;;;;;;6181774;23;19991;-90
2023/01/18 15:24:24;;;;;;;;;;;3.80;99.90;;;;;;6182324;23;20012;-90
2023/01/18 15:26:52;;;;;;;;;;;3.90;99.90;;;;;;6182951;23;19904;-89
2023/01/18 15:29:19;;;;;;;;;;;3.30;99.90;;;;;;6182786;23;19904;-90
2023/01/18 15:31:57;;;;;;;;;;;3.20;99.90;;;;;;6182323;23;20173;-91
2023/01/18 15:34:27;;;;;;;;;;;2.60;99.90;;;;;;6183225;23;19912;-91
2023/01/18 15:36:53;;;;;;;;;;;3.30;99.90;;;;;;6182253;23;19944;-89
2023/01/18 15:39:19;;;;;;;;;;;3.40;99.90;;;;;;6182877;23;19952;-90
2023/01/18 15:41:44;;;;;;;;;;;4.00;99.90;;;;;;6181894;23;20391;-88
2023/01/18 15:44:36;;;;;;;;;;;4.10;99.90;;;;;;6181593;23;19905;-90
2023/01/18 15:47:12;;;;;;;;;;;3.30;99.90;;;;;;6154884;23;19958;-89
2023/01/18 15:49:41;;;;;;;;;;;4.40;99.90;;;;;;6181733;23;20356;-89
2023/01/18 15:52:06;;;;;;;;;;;3.70;99.90;;;;;;6181541;23;20325;-90
2023/01/18 15:54:32;;;;;;;;;;;4.50;99.90;;;;;;6181695;23;19935;-91
2023/01/18 15:57:08;;;;;;;;;;;4.50;99.90;;;;;;6182223;23;20219;-89
2023/01/18 15:59:39;;;;;;;;;;;4.30;99.90;;;;;;6181771;23;20284;-92
2023/01/18 16:02:10;;;;;;;;;;;3.30;99.90;;;;;;6181679;23;19908;-90
2023/01/18 16:04:36;;;;;;;;;;;3.30;99.90;;;;;;6181822;23;19932;-90
2023/01/18 16:07:42;;;;;;;;;;;4.30;99.90;;;;;;6181856;23;19959;-88
2023/01/18 16:10:08;;;;;;;;;;;3.20;99.90;;;;;;6183268;23;19904;-90
2023/01/18 16:12:33;;;;;;;;;;;4.40;99.90;;;;;;6183354;23;19904;-90
2023/01/18 16:14:59;;;;;;;;;;;4.00;99.90;;;;;;6183380;23;20393;-91
2023/01/18 16:17:26;;;;;;;;;;;4.50;99.90;;;;;;6182607;23;20230;-91
2023/01/18 16:19:53;;;;;;;;;;;3.10;99.90;;;;;;6182445;23;19904;-91
2023/01/18 16:22:48;;;;;;;;;;;3.10;99.90;;;;;;6181497;23;20325;-90